الصفحة الرئيسية
METAR-TAF:

METAR-TAF

مطار :

مطار الملك عبد العزيز الدولي

جدة, السعودية

دائرة عرض: 21-42N, خط طول: 039-11E, ارتفاع: 15 متر

مراقبة الطقس الحالي

تاريخ ووقت الإصدار 1ساعة و 4 دقيقة قبل الساعة 04:00UTC
رياح هادئة
درجة الحرارة 28°درجة مئوية
الرطوبة 66%
ضغط 1003 hPa
الرؤية 10 كم أو أكثر
الغيوم لا تقل 1500 م ولا وجود لمزنة ركامية السحاب الأسود

METAR: OEJN 180400Z 00000KT CAVOK 28/21 Q1003 NOSIG

زمن: 08:04 (05:04 UTC)

توقعات

تاريخ ووقت الإصدار 6ساعات و 4 دقيقة قبل الساعة 23:00UTC
التوقعات صالحة من18 الساعة 00 UTC إلى 19 الساعة 06 UTC
ريح 3 عقدةمن اتجاهات متغيرة
الرؤية 10 كم أو أكثر
الغيوم لا تقل 1500 م ولا وجود لمزنة ركامية السحاب الأسود
أصبح
من 18 الساعة 06 UTC إلى 18 الساعة 08 UTC
ريح 13 عقدة من الغرب

TAF: OEJN 172300Z 1800/1906 VRB03KT CAVOK BECMG 1806/1808 27013KT

أرصاد الطقس والتوقعات من أكثر من 4000 مطار (تقارير الطقس للمطار METAR والتنبؤ بالطقس بالمطارTAF).

المحطات المتاحة هي النقط الصفراء والحمراء على الخريطة.

حرك المؤشر فوق النقطة لمعرفة اسم المحطة.

ثم انقر لمعرفة أرصاد وتوقعات الطقس.

لتغيير الخارطة: اضغط على الأزرار الخضراء مع رمز الصليب الأسود للتكبير. على الزر الأخضر مع شرطة للتصغير، أو على الأسهم الخضراء للخرائط المجاورة.


METAR-TAF: